KCKN/CKN METAR and TAF weather

Enter ICAO airport designator
Station Type Date Time Source
KCKN METAR 2018/04/20 08:35 UTC NOAA

KCKN 200835Z AUTO 14004KT 10SM CLR 02/M01 A3040 RMK AO2


Station Type Date Time Source
KCKN Decoded METAR 2018/04/20 08:35 UTC NOAA

Crookston Municipal Field, MN, United States (KCKN) 47-51N 096-37W
Apr 20, 2018 - 04:35 AM EDT / 2018.04.20 0835 UTC
Wind: from the SE (140 degrees) at 5 MPH (4 KT):0
Visibility: 10 mile(s):0
Sky conditions: clear
Temperature: 35 F (2 C)
Windchill: 30 F (-1 C):1
Dew Point: 30 F (-1 C)
Relative Humidity: 80%
Pressure (altimeter): 30.4 in. Hg (1029 hPa)
ob: KCKN 200835Z AUTO 14004KT 10SM CLR 02/M01 A3040 RMK AO2
cycle: 8

Station Type Date Time Source
KCKN TAF UTC NOAA

Error!


Example: see airport list